createdAt,value
2023-04-22T00:00:15.098Z,59.89
2023-04-22T00:02:38.950Z,59.96
2023-04-22T00:05:02.788Z,58.98
2023-04-22T00:07:26.504Z,59.82
2023-04-22T00:09:50.666Z,59.86
2023-04-22T00:12:15.754Z,59.24
2023-04-22T00:14:39.614Z,59.52
2023-04-22T00:17:03.272Z,60.44
2023-04-22T00:19:26.804Z,61.54
2023-04-22T00:21:50.634Z,60.49
2023-04-22T00:24:14.174Z,59.83
2023-04-22T00:26:37.910Z,61.94
2023-04-22T00:29:02.799Z,61.16
2023-04-22T00:31:26.570Z,62.09
2023-04-22T00:33:50.188Z,62.73
2023-04-22T00:36:13.858Z,62.13
2023-04-22T00:38:37.804Z,62.75
2023-04-22T00:41:01.425Z,62.69
2023-04-22T00:43:24.963Z,62.53
2023-04-22T00:45:51.100Z,63.31
2023-04-22T00:48:15.616Z,62.18
2023-04-22T00:50:39.292Z,63.49
2023-04-22T00:53:02.883Z,63.51
2023-04-22T00:55:26.920Z,63.08
2023-04-22T00:57:52.130Z,61.97
2023-04-22T01:00:16.376Z,62.65
2023-04-22T01:02:42.452Z,61.69
2023-04-22T01:05:08.511Z,62.39
2023-04-22T01:07:32.024Z,63.42
2023-04-22T01:09:55.852Z,63.38
2023-04-22T01:12:19.425Z,62.29
2023-04-22T01:14:43.427Z,62.34
2023-04-22T01:17:10.146Z,62.82
2023-04-22T01:19:35.193Z,63.18
2023-04-22T01:22:01.072Z,61.90
2023-04-22T01:24:26.588Z,61.69
2023-04-22T01:26:50.299Z,62.06
2023-04-22T01:29:15.394Z,62.53
2023-04-22T01:31:39.628Z,62.43
2023-04-22T01:34:03.661Z,62.45
2023-04-22T01:36:27.467Z,62.56
2023-04-22T01:38:51.333Z,64.92
2023-04-22T01:41:16.530Z,63.02
2023-04-22T01:43:40.834Z,64.13
2023-04-22T01:46:06.276Z,64.06
2023-04-22T01:48:29.932Z,63.63
2023-04-22T01:50:53.521Z,64.44
2023-04-22T01:53:17.176Z,63.49
2023-04-22T01:55:41.556Z,64.18
2023-04-22T01:58:07.586Z,62.90
2023-04-22T02:00:31.981Z,63.27
2023-04-22T02:02:55.709Z,63.96
2023-04-22T02:05:21.687Z,65.38
2023-04-22T02:07:45.407Z,64.35
2023-04-22T02:10:13.999Z,65.24
2023-04-22T02:12:37.680Z,64.68
2023-04-22T02:15:03.325Z,64.67
2023-04-22T02:17:27.135Z,64.31
2023-04-22T02:19:50.698Z,64.18
2023-04-22T02:22:14.341Z,65.51
2023-04-22T02:24:38.066Z,64.34
2023-04-22T02:27:01.683Z,65.02
2023-04-22T02:29:25.434Z,65.49
2023-04-22T02:31:55.249Z,64.70
2023-04-22T02:34:19.100Z,64.26
2023-04-22T02:36:43.471Z,64.81
2023-04-22T02:39:07.014Z,64.96
2023-04-22T02:41:32.113Z,64.72
2023-04-22T02:43:55.689Z,64.39
2023-04-22T02:46:19.421Z,64.93
2023-04-22T02:48:44.642Z,64.90
2023-04-22T02:51:08.410Z,65.70
2023-04-22T02:53:32.090Z,64.68
2023-04-22T02:55:55.771Z,65.52
2023-04-22T02:58:19.463Z,64.85
2023-04-22T03:00:43.498Z,64.21
2023-04-22T03:03:07.291Z,64.78
2023-04-22T03:05:32.907Z,65.81
2023-04-22T03:07:57.711Z,64.86
2023-04-22T03:10:21.514Z,64.70
2023-04-22T03:12:45.101Z,64.35
2023-04-22T03:15:10.480Z,64.30
2023-04-22T03:17:34.778Z,64.42
2023-04-22T03:20:01.857Z,63.73
2023-04-22T03:22:27.652Z,64.70
2023-04-22T03:24:54.130Z,64.30
2023-04-22T03:27:18.018Z,63.88
2023-04-22T03:29:41.963Z,63.75
2023-04-22T03:32:05.828Z,63.98
2023-04-22T03:34:30.496Z,64.16
2023-04-22T03:36:54.188Z,64.69
2023-04-22T03:39:20.147Z,63.96
2023-04-22T03:41:43.748Z,63.81
2023-04-22T03:44:07.886Z,63.72
2023-04-22T03:46:32.726Z,65.36
2023-04-22T03:49:05.381Z,64.89
2023-04-22T03:51:31.453Z,65.22
2023-04-22T03:53:57.845Z,64.27
2023-04-22T03:56:25.791Z,64.71
2023-04-22T03:58:52.717Z,65.62
2023-04-22T04:01:16.995Z,66.44
2023-04-22T04:03:44.906Z,65.51
2023-04-22T04:06:10.089Z,65.12
2023-04-22T04:08:33.902Z,65.96
2023-04-22T04:10:57.539Z,67.83
2023-04-22T04:13:22.877Z,66.82
2023-04-22T04:16:10.787Z,66.28
2023-04-22T04:18:37.449Z,66.82
2023-04-22T04:21:01.093Z,66.27
2023-04-22T04:23:27.211Z,67.62
2023-04-22T04:25:51.987Z,67.47
2023-04-22T04:28:17.659Z,67.40
2023-04-22T04:30:42.867Z,67.97
2023-04-22T04:33:07.448Z,67.46
2023-04-22T04:35:34.429Z,66.83
2023-04-22T04:37:59.379Z,66.55
2023-04-22T04:40:23.618Z,67.32
2023-04-22T04:43:19.783Z,68.85
2023-04-22T04:45:49.692Z,67.60
2023-04-22T04:48:19.961Z,68.13
2023-04-22T04:50:50.357Z,66.67
2023-04-22T04:53:14.426Z,67.00
2023-04-22T04:55:40.146Z,67.54
2023-04-22T04:58:11.669Z,67.05
2023-04-22T05:00:35.519Z,66.06
2023-04-22T05:03:00.708Z,65.88
2023-04-22T05:05:24.933Z,67.28
2023-04-22T05:07:48.883Z,66.63
2023-04-22T05:10:13.825Z,66.20
2023-04-22T05:12:37.669Z,65.88
2023-04-22T05:15:05.012Z,65.79
2023-04-22T05:17:29.170Z,65.07
2023-04-22T05:19:54.610Z,64.64
2023-04-22T05:22:18.672Z,65.49
2023-04-22T05:24:44.205Z,65.16
2023-04-22T05:27:08.311Z,63.67
2023-04-22T05:29:32.632Z,63.43
2023-04-22T05:31:57.912Z,63.00
2023-04-22T05:34:21.793Z,62.51
2023-04-22T05:36:47.627Z,62.58
2023-04-22T05:39:11.273Z,61.44
2023-04-22T05:41:35.309Z,60.74
2023-04-22T05:43:59.902Z,61.17
2023-04-22T05:46:24.417Z,61.17
2023-04-22T05:48:49.437Z,59.94
2023-04-22T05:51:31.397Z,59.86
2023-04-22T05:53:57.251Z,59.95
2023-04-22T05:56:22.310Z,58.15
2023-04-22T05:58:45.976Z,57.85
2023-04-22T06:01:17.649Z,57.03
2023-04-22T06:03:48.747Z,55.30
2023-04-22T06:06:12.574Z,55.25
2023-04-22T06:08:36.651Z,53.88
2023-04-22T06:11:02.476Z,52.36
2023-04-22T06:13:29.316Z,50.94
2023-04-22T06:15:53.056Z,50.14
2023-04-22T06:18:16.670Z,48.16
2023-04-22T06:20:40.972Z,48.83
2023-04-22T06:23:06.115Z,46.65
2023-04-22T06:25:29.982Z,44.64
2023-04-22T06:27:55.023Z,45.49
2023-04-22T06:30:19.839Z,44.71
2023-04-22T06:32:43.457Z,42.44
2023-04-22T06:35:08.698Z,41.17
2023-04-22T06:37:32.937Z,40.59
2023-04-22T06:39:56.728Z,41.46
2023-04-22T06:42:38.876Z,40.52
2023-04-22T06:45:22.508Z,39.80
2023-04-22T06:47:56.569Z,38.78
2023-04-22T06:50:26.654Z,38.00
2023-04-22T06:52:54.557Z,37.93
2023-04-22T06:55:18.473Z,35.63
2023-04-22T06:57:42.051Z,35.67
2023-04-22T07:00:09.440Z,38.04
2023-04-22T07:02:38.288Z,36.94
2023-04-22T07:05:02.019Z,37.66
2023-04-22T07:07:26.028Z,34.56
2023-04-22T07:09:49.797Z,34.79
2023-04-22T07:12:13.324Z,36.11
2023-04-22T07:14:38.140Z,34.49
2023-04-22T07:17:01.762Z,35.02
2023-04-22T07:19:26.880Z,34.78
2023-04-22T07:21:50.836Z,35.37
2023-04-22T07:24:14.471Z,36.79
2023-04-22T07:26:38.258Z,39.71
2023-04-22T07:29:01.861Z,36.93
2023-04-22T07:31:25.465Z,35.85
2023-04-22T07:33:49.064Z,34.54
2023-04-22T07:36:14.057Z,35.18
2023-04-22T07:38:38.067Z,36.21
2023-04-22T07:41:02.099Z,36.09
2023-04-22T07:43:26.157Z,36.24
2023-04-22T07:45:49.833Z,35.50
2023-04-22T07:48:13.505Z,35.77
2023-04-22T07:50:38.841Z,35.26
2023-04-22T07:53:03.975Z,37.80
2023-04-22T07:55:27.499Z,36.95
2023-04-22T07:57:51.120Z,36.16
2023-04-22T08:00:16.106Z,35.50
2023-04-22T08:02:39.768Z,36.22
2023-04-22T08:05:03.495Z,35.87
2023-04-22T08:07:32.927Z,35.14
2023-04-22T08:09:58.640Z,35.18
2023-04-22T08:12:22.268Z,35.67
2023-04-22T08:14:45.803Z,35.08
2023-04-22T08:17:09.434Z,35.23
2023-04-22T08:19:33.012Z,34.70
2023-04-22T08:21:56.610Z,34.22
2023-04-22T08:24:20.173Z,34.24
2023-04-22T08:26:45.185Z,35.06
2023-04-22T08:29:08.964Z,33.97
2023-04-22T08:31:32.725Z,34.22
2023-04-22T08:33:56.560Z,33.88
2023-04-22T08:36:22.807Z,33.62
2023-04-22T08:38:48.328Z,33.87
2023-04-22T08:41:14.523Z,34.67
2023-04-22T08:43:39.854Z,35.72
2023-04-22T08:46:03.611Z,34.11
2023-04-22T08:48:27.864Z,36.99
2023-04-22T08:50:52.008Z,35.27
2023-04-22T08:53:15.992Z,35.83
2023-04-22T08:55:41.311Z,33.87
2023-04-22T08:58:06.264Z,34.75
2023-04-22T09:00:32.270Z,32.63
2023-04-22T09:02:57.493Z,34.60
2023-04-22T09:05:27.972Z,33.65
2023-04-22T09:07:51.910Z,33.06
2023-04-22T09:10:16.975Z,33.35
2023-04-22T09:12:51.064Z,33.01
2023-04-22T09:15:14.798Z,33.72
2023-04-22T09:17:39.796Z,33.08
2023-04-22T09:20:06.182Z,34.25
2023-04-22T09:22:38.327Z,34.72
2023-04-22T09:25:02.233Z,35.22
2023-04-22T09:27:26.928Z,32.72
2023-04-22T09:29:51.457Z,32.96
2023-04-22T09:32:19.346Z,33.05
2023-04-22T09:34:51.905Z,33.87
2023-04-22T09:37:15.516Z,31.86
2023-04-22T09:39:39.412Z,31.61
2023-04-22T09:42:03.299Z,30.98
2023-04-22T09:44:29.378Z,31.86
2023-04-22T09:46:57.860Z,29.96
2023-04-22T09:49:23.196Z,32.56
2023-04-22T09:51:49.880Z,32.13
2023-04-22T09:54:13.570Z,33.29
2023-04-22T09:56:48.203Z,29.54
2023-04-22T09:59:12.199Z,30.99
2023-04-22T10:01:37.998Z,30.38
2023-04-22T10:04:01.770Z,30.44
2023-04-22T10:06:25.548Z,30.65
2023-04-22T10:08:50.606Z,29.18
2023-04-22T10:11:14.422Z,29.01
2023-04-22T10:13:38.144Z,29.11
2023-04-22T10:16:02.696Z,28.41
2023-04-22T10:18:28.726Z,30.61
2023-04-22T10:20:53.084Z,29.34
2023-04-22T10:23:20.839Z,28.85
2023-04-22T10:25:51.449Z,28.76
2023-04-22T10:28:18.459Z,29.49
2023-04-22T10:30:42.317Z,31.00
2023-04-22T10:33:39.200Z,27.25
2023-04-22T10:36:14.765Z,30.95
2023-04-22T10:38:40.130Z,27.59
2023-04-22T10:41:05.310Z,28.20
2023-04-22T10:43:43.070Z,31.04
2023-04-22T10:46:06.842Z,28.49
2023-04-22T10:48:51.682Z,27.92
2023-04-22T10:51:40.168Z,28.61
2023-04-22T10:54:03.763Z,28.34
2023-04-22T10:56:28.950Z,29.29
2023-04-22T10:58:52.811Z,27.69
2023-04-22T11:01:16.932Z,27.07
2023-04-22T11:03:41.178Z,28.74
2023-04-22T11:06:19.451Z,27.95
2023-04-22T11:08:47.591Z,25.93
2023-04-22T11:11:13.793Z,25.10
2023-04-22T11:13:39.049Z,27.37
2023-04-22T11:16:03.570Z,27.78
2023-04-22T11:18:28.447Z,25.53
2023-04-22T11:20:53.741Z,26.80
2023-04-22T11:23:26.508Z,25.98
2023-04-22T11:25:54.703Z,25.82
2023-04-22T11:28:22.872Z,26.85
2023-04-22T11:30:51.687Z,30.50
2023-04-22T11:33:17.671Z,26.85
2023-04-22T11:35:42.727Z,27.94
2023-04-22T11:38:08.774Z,28.04
2023-04-22T11:40:36.918Z,26.17
2023-04-22T11:43:05.783Z,25.90
2023-04-22T11:45:31.344Z,27.22
2023-04-22T11:47:57.450Z,28.71
2023-04-22T11:50:26.868Z,28.30
2023-04-22T11:52:53.563Z,27.27
2023-04-22T11:55:21.077Z,28.37
2023-04-22T11:57:46.736Z,26.90
2023-04-22T12:00:17.467Z,27.06
2023-04-22T12:02:42.437Z,29.30
2023-04-22T12:05:15.841Z,31.15
2023-04-22T12:07:40.396Z,25.67
2023-04-22T12:10:05.620Z,26.23
2023-04-22T12:12:33.056Z,27.95
2023-04-22T12:14:58.076Z,29.04
2023-04-22T12:17:25.652Z,26.11
2023-04-22T12:19:49.511Z,26.47
2023-04-22T12:22:14.659Z,25.12
2023-04-22T12:24:38.215Z,26.26
2023-04-22T12:27:01.926Z,26.96
2023-04-22T12:29:34.047Z,27.36
2023-04-22T12:31:57.741Z,26.83
2023-04-22T12:34:21.264Z,25.35
2023-04-22T12:36:44.967Z,24.13
2023-04-22T12:39:10.688Z,24.14
2023-04-22T12:41:34.363Z,24.05
2023-04-22T12:43:57.922Z,24.15
2023-04-22T12:46:21.679Z,24.28
2023-04-22T12:48:45.834Z,25.60
2023-04-22T12:51:09.461Z,24.90
2023-04-22T12:53:33.119Z,24.81
2023-04-22T12:55:58.494Z,24.66
2023-04-22T12:58:22.062Z,25.92
2023-04-22T13:00:45.692Z,23.37
2023-04-22T13:03:09.397Z,24.85
2023-04-22T13:05:33.282Z,23.87
2023-04-22T13:08:06.586Z,25.61
2023-04-22T13:10:31.118Z,24.69
2023-04-22T13:13:09.804Z,25.44
2023-04-22T13:15:40.515Z,24.81
2023-04-22T13:18:04.161Z,25.12
2023-04-22T13:20:27.917Z,25.91
2023-04-22T13:22:53.568Z,24.99
2023-04-22T13:25:17.352Z,26.71
2023-04-22T13:27:40.884Z,24.04
2023-04-22T13:30:07.637Z,27.22
2023-04-22T13:32:31.335Z,23.82
2023-04-22T13:34:55.047Z,25.45
2023-04-22T13:37:20.219Z,26.09
2023-04-22T13:39:43.874Z,25.37
2023-04-22T13:42:07.723Z,26.46
2023-04-22T13:44:31.624Z,24.86
2023-04-22T13:46:56.561Z,24.64
2023-04-22T13:49:20.204Z,24.11
2023-04-22T13:51:43.780Z,25.11
2023-04-22T13:54:08.517Z,24.50
2023-04-22T13:56:32.103Z,26.48
2023-04-22T13:58:56.126Z,24.81
2023-04-22T14:01:19.802Z,25.28
2023-04-22T14:03:45.687Z,24.96
2023-04-22T14:06:09.484Z,26.03
2023-04-22T14:08:33.151Z,26.70
2023-04-22T14:10:57.233Z,25.01
2023-04-22T14:13:21.291Z,27.38
2023-04-22T14:15:44.894Z,26.72
2023-04-22T14:18:08.570Z,27.39
2023-04-22T14:20:33.556Z,25.90
2023-04-22T14:22:57.244Z,26.22
2023-04-22T14:25:20.957Z,27.69
2023-04-22T14:27:44.675Z,27.50
2023-04-22T14:30:09.740Z,26.70
2023-04-22T14:32:33.846Z,26.68
2023-04-22T14:34:57.447Z,26.44
2023-04-22T14:37:23.866Z,26.76
2023-04-22T14:39:47.895Z,27.29
2023-04-22T14:42:11.574Z,26.41
2023-04-22T14:44:36.285Z,27.95
2023-04-22T14:46:59.923Z,27.12
2023-04-22T14:49:23.580Z,29.05
2023-04-22T14:51:47.257Z,26.52
2023-04-22T14:54:12.260Z,27.22
2023-04-22T14:56:36.180Z,26.49
2023-04-22T14:58:59.754Z,27.77
2023-04-22T15:01:23.483Z,26.19
2023-04-22T15:03:49.001Z,26.66
2023-04-22T15:06:13.026Z,26.59
2023-04-22T15:08:36.755Z,26.34
2023-04-22T15:11:01.839Z,25.75
2023-04-22T15:13:25.829Z,25.59
2023-04-22T15:15:49.509Z,26.70
2023-04-22T15:18:13.100Z,27.42
2023-04-22T15:20:37.363Z,26.82
2023-04-22T15:23:03.220Z,26.78
2023-04-22T15:25:27.625Z,28.22
2023-04-22T15:27:56.509Z,27.61
2023-04-22T15:30:20.231Z,27.17
2023-04-22T15:32:44.239Z,28.06
2023-04-22T15:35:09.615Z,28.31
2023-04-22T15:37:33.467Z,27.32
2023-04-22T15:39:57.149Z,28.00
2023-04-22T15:42:21.283Z,28.50
2023-04-22T15:44:46.434Z,27.14
2023-04-22T15:47:11.193Z,28.62
2023-04-22T15:49:35.732Z,27.54
2023-04-22T15:52:01.115Z,27.67
2023-04-22T15:54:24.721Z,29.34
2023-04-22T15:56:48.316Z,29.19
2023-04-22T15:59:11.966Z,28.97
2023-04-22T16:01:40.332Z,27.56
2023-04-22T16:04:04.959Z,27.91
2023-04-22T16:06:29.156Z,27.81
2023-04-22T16:09:02.850Z,29.17
2023-04-22T16:11:26.662Z,29.16
2023-04-22T16:13:50.237Z,27.84
2023-04-22T16:16:14.025Z,28.10
2023-04-22T16:18:44.215Z,28.60
2023-04-22T16:21:11.539Z,28.65
2023-04-22T16:26:49.063Z,29.66
2023-04-22T16:29:24.850Z,29.43
2023-04-22T16:31:48.565Z,28.33
2023-04-22T16:34:13.529Z,27.57
2023-04-22T16:36:37.121Z,27.60
2023-04-22T16:39:00.901Z,27.59
2023-04-22T16:41:24.954Z,27.76
2023-04-22T16:43:49.265Z,29.39
2023-04-22T16:46:13.068Z,28.20
2023-04-22T16:48:37.200Z,29.59
2023-04-22T16:51:03.660Z,28.78
2023-04-22T16:53:27.283Z,27.95
2023-04-22T16:55:50.944Z,28.85
2023-04-22T16:58:17.167Z,30.30
2023-04-22T17:00:47.128Z,28.36
2023-04-22T17:03:12.090Z,28.30
2023-04-22T17:05:35.813Z,28.72
2023-04-22T17:08:01.195Z,28.28
2023-04-22T17:10:25.072Z,29.38
2023-04-22T17:12:53.458Z,28.84
2023-04-22T17:15:21.205Z,28.58
2023-04-22T17:17:48.321Z,30.50
2023-04-22T17:20:12.711Z,29.77
2023-04-22T17:22:36.350Z,29.39
2023-04-22T17:25:01.292Z,30.69
2023-04-22T17:27:28.472Z,29.37
2023-04-22T17:29:54.177Z,29.51
2023-04-22T17:32:21.960Z,29.70
2023-04-22T17:34:45.644Z,33.03
2023-04-22T17:37:12.981Z,30.13
2023-04-22T17:39:41.098Z,31.01
2023-04-22T17:42:06.316Z,30.68
2023-04-22T17:44:31.095Z,31.70
2023-04-22T17:46:54.739Z,32.89
2023-04-22T17:49:18.378Z,33.68
2023-04-22T17:51:41.997Z,32.50
2023-04-22T17:54:06.429Z,33.69
2023-04-22T17:56:39.683Z,34.42
2023-04-22T17:59:12.726Z,35.04
2023-04-22T18:04:42.692Z,35.58
2023-04-22T18:07:06.315Z,35.14
2023-04-22T18:09:35.125Z,37.44
2023-04-22T18:12:29.263Z,35.23
2023-04-22T18:15:07.688Z,37.53
2023-04-22T18:17:35.875Z,39.12
2023-04-22T18:20:18.532Z,38.39
2023-04-22T18:22:56.379Z,39.19
2023-04-22T18:25:21.936Z,38.42
2023-04-22T18:27:54.999Z,38.56
2023-04-22T18:30:23.740Z,39.64
2023-04-22T18:32:48.144Z,39.67
2023-04-22T18:35:11.984Z,39.43
2023-04-22T18:37:39.110Z,39.64
2023-04-22T18:40:06.043Z,39.22
2023-04-22T18:42:47.700Z,39.75
2023-04-22T18:45:13.637Z,40.29
2023-04-22T18:47:49.459Z,40.15
2023-04-22T18:50:19.988Z,39.64
2023-04-22T18:52:45.286Z,38.46
2023-04-22T18:55:16.385Z,39.72
2023-04-22T18:57:41.670Z,40.22
2023-04-22T19:00:08.475Z,41.54
2023-04-22T19:02:39.963Z,41.84
2023-04-22T19:05:10.040Z,40.80
2023-04-22T19:07:39.468Z,42.21
2023-04-22T19:10:05.392Z,41.80
2023-04-22T19:12:31.814Z,43.74
2023-04-22T19:15:01.499Z,42.85
2023-04-22T19:17:27.160Z,43.02
2023-04-22T19:19:51.507Z,43.70
2023-04-22T19:22:16.955Z,42.79
2023-04-22T19:24:41.349Z,44.01
2023-04-22T19:27:12.143Z,43.68
2023-04-22T19:29:36.159Z,44.13
2023-04-22T19:32:00.651Z,44.12
2023-04-22T19:34:24.668Z,43.51
2023-04-22T19:36:49.899Z,45.14
2023-04-22T19:39:17.618Z,45.86
2023-04-22T19:41:41.756Z,45.77
2023-04-22T19:44:06.843Z,47.04
2023-04-22T19:46:31.622Z,47.22
2023-04-22T19:48:57.315Z,46.92
2023-04-22T19:51:21.846Z,47.72
2023-04-22T19:53:46.814Z,47.56
2023-04-22T19:56:12.774Z,48.15
2023-04-22T19:58:37.201Z,47.88
2023-04-22T20:01:02.603Z,48.55
2023-04-22T20:03:28.162Z,48.82
2023-04-22T20:05:54.476Z,49.49
2023-04-22T20:08:21.966Z,49.63
2023-04-22T20:10:49.738Z,49.31
2023-04-22T20:13:16.074Z,49.56
2023-04-22T20:15:41.201Z,49.47
2023-04-22T20:18:05.864Z,49.80
2023-04-22T20:20:33.605Z,49.36
2023-04-22T20:23:00.413Z,50.25
2023-04-22T20:25:24.969Z,50.29
2023-04-22T20:27:50.310Z,50.83
2023-04-22T20:30:17.029Z,51.44
2023-04-22T20:32:42.218Z,51.30
2023-04-22T20:35:11.549Z,52.21
2023-04-22T20:37:37.110Z,52.14
2023-04-22T20:40:04.292Z,51.52
2023-04-22T20:42:29.096Z,52.27
2023-04-22T20:44:53.132Z,51.99
2023-04-22T20:47:19.060Z,52.28
2023-04-22T20:49:45.242Z,54.09
2023-04-22T20:52:09.699Z,52.32
2023-04-22T20:54:34.165Z,52.74
2023-04-22T20:56:59.022Z,53.96
2023-04-22T20:59:22.872Z,52.63
2023-04-22T21:01:49.463Z,51.94
2023-04-22T21:04:17.101Z,51.43
2023-04-22T21:06:41.972Z,52.17
2023-04-22T21:09:08.004Z,52.17
2023-04-22T21:11:32.919Z,52.28
2023-04-22T21:13:57.784Z,52.19
2023-04-22T21:16:26.851Z,52.63
2023-04-22T21:18:51.976Z,53.37
2023-04-22T21:21:19.168Z,53.70
2023-04-22T21:23:43.147Z,52.03
2023-04-22T21:26:07.539Z,52.30
2023-04-22T21:28:31.968Z,52.01
2023-04-22T21:30:56.678Z,51.89
2023-04-22T21:33:20.239Z,51.14
2023-04-22T21:35:43.973Z,51.94
2023-04-22T21:38:10.765Z,51.70
2023-04-22T21:40:35.509Z,50.36
2023-04-22T21:43:00.995Z,51.64
2023-04-22T21:45:25.141Z,51.58
2023-04-22T21:47:49.035Z,51.96
2023-04-22T21:50:13.297Z,52.76
2023-04-22T21:52:37.817Z,51.71
2023-04-22T21:55:04.083Z,51.69
2023-04-22T21:57:28.403Z,52.03
2023-04-22T21:59:52.493Z,52.23
2023-04-22T22:02:16.851Z,53.23
2023-04-22T22:04:42.320Z,52.72
2023-04-22T22:07:06.677Z,51.51
2023-04-22T22:09:34.976Z,51.02
2023-04-22T22:12:01.941Z,52.72
2023-04-22T22:14:26.337Z,51.45
2023-04-22T22:16:54.533Z,52.30
2023-04-22T22:19:20.711Z,51.75
2023-04-22T22:21:44.651Z,50.98
2023-04-22T22:24:09.945Z,51.92
2023-04-22T22:26:36.365Z,51.47
2023-04-22T22:29:01.779Z,51.76
2023-04-22T22:31:26.460Z,51.75
2023-04-22T22:33:50.624Z,51.51
2023-04-22T22:36:15.020Z,50.93
2023-04-22T22:38:39.561Z,51.80
2023-04-22T22:41:04.612Z,51.29
2023-04-22T22:43:28.671Z,49.66
2023-04-22T22:45:55.705Z,48.85
2023-04-22T22:48:20.187Z,49.86
2023-04-22T22:50:46.779Z,49.84
2023-04-22T22:53:10.539Z,48.33
2023-04-22T22:55:37.347Z,49.72
2023-04-22T22:58:05.169Z,47.17
2023-04-22T23:00:29.405Z,50.49
2023-04-22T23:02:54.745Z,47.39
2023-04-22T23:05:19.100Z,47.88
2023-04-22T23:07:43.617Z,46.82
2023-04-22T23:10:09.594Z,47.22
2023-04-22T23:12:34.648Z,46.54
2023-04-22T23:14:59.021Z,46.95
2023-04-22T23:17:23.232Z,46.87
2023-04-22T23:19:52.297Z,47.40
2023-04-22T23:22:16.831Z,47.77
2023-04-22T23:24:41.933Z,46.80
2023-04-22T23:27:07.184Z,47.33
2023-04-22T23:29:32.151Z,47.00
2023-04-22T23:31:57.004Z,47.58
2023-04-22T23:34:23.860Z,47.41
2023-04-22T23:36:50.062Z,47.07
2023-04-22T23:39:13.562Z,47.29
2023-04-22T23:41:37.809Z,47.13
2023-04-22T23:44:01.984Z,47.90
2023-04-22T23:46:27.771Z,47.30
2023-04-22T23:48:51.545Z,48.07
2023-04-22T23:51:16.872Z,47.43
2023-04-22T23:53:41.877Z,47.71
2023-04-22T23:56:06.492Z,47.28
2023-04-22T23:58:30.669Z,48.27
